sensor_id;sensor_type;location;lat;lon;timestamp;P1;durP1;ratioP1;P2;durP2;ratioP2
71777;SDS011;59609;52.430;4.668;2023-08-06T00:00:38;10.87;;;7.00;;
71777;SDS011;59609;52.430;4.668;2023-08-06T00:03:04;14.15;;;7.35;;
71777;SDS011;59609;52.430;4.668;2023-08-06T00:05:29;14.20;;;7.47;;
71777;SDS011;59609;52.430;4.668;2023-08-06T00:07:54;15.53;;;8.03;;
71777;SDS011;59609;52.430;4.668;2023-08-06T00:10:22;20.98;;;7.85;;
71777;SDS011;59609;52.430;4.668;2023-08-06T00:12:47;14.83;;;8.03;;
71777;SDS011;59609;52.430;4.668;2023-08-06T00:15:13;19.55;;;8.50;;
71777;SDS011;59609;52.430;4.668;2023-08-06T00:17:39;15.90;;;7.95;;
71777;SDS011;59609;52.430;4.668;2023-08-06T00:20:04;14.95;;;8.13;;
71777;SDS011;59609;52.430;4.668;2023-08-06T00:22:31;14.07;;;8.00;;
71777;SDS011;59609;52.430;4.668;2023-08-06T00:24:57;17.65;;;7.95;;
71777;SDS011;59609;52.430;4.668;2023-08-06T00:27:22;14.07;;;7.88;;
71777;SDS011;59609;52.430;4.668;2023-08-06T00:29:47;15.52;;;7.45;;
71777;SDS011;59609;52.430;4.668;2023-08-06T00:32:13;14.07;;;7.93;;
71777;SDS011;59609;52.430;4.668;2023-08-06T00:34:38;14.47;;;8.47;;
71777;SDS011;59609;52.430;4.668;2023-08-06T00:37:03;15.97;;;8.17;;
71777;SDS011;59609;52.430;4.668;2023-08-06T00:39:28;17.13;;;7.73;;
71777;SDS011;59609;52.430;4.668;2023-08-06T00:41:54;15.00;;;7.83;;
71777;SDS011;59609;52.430;4.668;2023-08-06T00:44:19;14.18;;;8.05;;
71777;SDS011;59609;52.430;4.668;2023-08-06T00:46:44;13.50;;;7.73;;
71777;SDS011;59609;52.430;4.668;2023-08-06T00:49:10;12.70;;;7.60;;
71777;SDS011;59609;52.430;4.668;2023-08-06T00:51:35;11.07;;;7.07;;
71777;SDS011;59609;52.430;4.668;2023-08-06T00:54:01;14.93;;;7.57;;
71777;SDS011;59609;52.430;4.668;2023-08-06T00:56:26;15.18;;;8.15;;
71777;SDS011;59609;52.430;4.668;2023-08-06T00:58:52;11.93;;;7.70;;
71777;SDS011;59609;52.430;4.668;2023-08-06T01:01:17;13.63;;;7.77;;
71777;SDS011;59609;52.430;4.668;2023-08-06T01:03:42;14.33;;;8.33;;
71777;SDS011;59609;52.430;4.668;2023-08-06T01:06:07;12.60;;;7.83;;
71777;SDS011;59609;52.430;4.668;2023-08-06T01:13:48;16.88;;;8.23;;
71777;SDS011;59609;52.430;4.668;2023-08-06T01:16:15;14.70;;;8.88;;
71777;SDS011;59609;52.430;4.668;2023-08-06T01:18:40;15.60;;;8.70;;
71777;SDS011;59609;52.430;4.668;2023-08-06T01:21:07;16.73;;;8.82;;
71777;SDS011;59609;52.430;4.668;2023-08-06T01:23:32;15.48;;;8.75;;
71777;SDS011;59609;52.430;4.668;2023-08-06T01:26:05;15.32;;;8.23;;
71777;SDS011;59609;52.430;4.668;2023-08-06T01:28:37;16.60;;;9.25;;
71777;SDS011;59609;52.430;4.668;2023-08-06T01:31:05;13.52;;;8.75;;
71777;SDS011;59609;52.430;4.668;2023-08-06T01:33:31;14.15;;;8.75;;
71777;SDS011;59609;52.430;4.668;2023-08-06T01:35:57;16.00;;;9.40;;
71777;SDS011;59609;52.430;4.668;2023-08-06T01:38:23;13.80;;;8.63;;
71777;SDS011;59609;52.430;4.668;2023-08-06T01:40:48;15.93;;;8.98;;
71777;SDS011;59609;52.430;4.668;2023-08-06T01:43:14;15.60;;;8.87;;
71777;SDS011;59609;52.430;4.668;2023-08-06T01:45:39;16.97;;;8.57;;
71777;SDS011;59609;52.430;4.668;2023-08-06T01:48:04;13.03;;;8.30;;
71777;SDS011;59609;52.430;4.668;2023-08-06T01:50:29;14.40;;;8.27;;
71777;SDS011;59609;52.430;4.668;2023-08-06T01:52:54;13.27;;;8.30;;
71777;SDS011;59609;52.430;4.668;2023-08-06T01:55:20;14.60;;;8.50;;
71777;SDS011;59609;52.430;4.668;2023-08-06T01:57:45;14.30;;;9.00;;
71777;SDS011;59609;52.430;4.668;2023-08-06T02:00:10;14.38;;;9.02;;
71777;SDS011;59609;52.430;4.668;2023-08-06T02:02:36;13.98;;;8.63;;
71777;SDS011;59609;52.430;4.668;2023-08-06T02:05:01;15.60;;;9.73;;
71777;SDS011;59609;52.430;4.668;2023-08-06T02:07:26;15.83;;;10.47;;
71777;SDS011;59609;52.430;4.668;2023-08-06T02:09:52;18.87;;;10.13;;
71777;SDS011;59609;52.430;4.668;2023-08-06T02:12:17;16.87;;;10.27;;
71777;SDS011;59609;52.430;4.668;2023-08-06T02:14:42;18.97;;;10.63;;
71777;SDS011;59609;52.430;4.668;2023-08-06T02:17:07;19.10;;;12.40;;
71777;SDS011;59609;52.430;4.668;2023-08-06T02:19:32;18.90;;;10.43;;
71777;SDS011;59609;52.430;4.668;2023-08-06T02:21:58;18.23;;;9.85;;
71777;SDS011;59609;52.430;4.668;2023-08-06T02:24:23;19.83;;;10.43;;
71777;SDS011;59609;52.430;4.668;2023-08-06T02:26:48;18.47;;;10.53;;
71777;SDS011;59609;52.430;4.668;2023-08-06T02:29:16;14.68;;;8.98;;
71777;SDS011;59609;52.430;4.668;2023-08-06T02:31:41;15.10;;;9.30;;
71777;SDS011;59609;52.430;4.668;2023-08-06T02:34:06;11.63;;;7.50;;
71777;SDS011;59609;52.430;4.668;2023-08-06T02:36:32;18.50;;;10.93;;
71777;SDS011;59609;52.430;4.668;2023-08-06T02:38:57;14.63;;;8.82;;
71777;SDS011;59609;52.430;4.668;2023-08-06T02:41:22;14.90;;;8.43;;
71777;SDS011;59609;52.430;4.668;2023-08-06T02:43:47;10.18;;;6.75;;
71777;SDS011;59609;52.430;4.668;2023-08-06T02:46:13;9.53;;;5.27;;
71777;SDS011;59609;52.430;4.668;2023-08-06T02:48:38;6.87;;;4.93;;
71777;SDS011;59609;52.430;4.668;2023-08-06T02:51:03;6.03;;;4.57;;
71777;SDS011;59609;52.430;4.668;2023-08-06T02:53:28;7.00;;;4.22;;
71777;SDS011;59609;52.430;4.668;2023-08-06T02:55:54;5.95;;;3.53;;
71777;SDS011;59609;52.430;4.668;2023-08-06T02:58:20;4.70;;;3.20;;
71777;SDS011;59609;52.430;4.668;2023-08-06T03:00:58;4.32;;;3.05;;
71777;SDS011;59609;52.430;4.668;2023-08-06T03:03:24;3.85;;;2.70;;
71777;SDS011;59609;52.430;4.668;2023-08-06T03:05:52;3.47;;;2.80;;
71777;SDS011;59609;52.430;4.668;2023-08-06T03:08:18;3.85;;;2.25;;
71777;SDS011;59609;52.430;4.668;2023-08-06T03:10:47;3.88;;;2.47;;
71777;SDS011;59609;52.430;4.668;2023-08-06T03:13:12;3.30;;;2.45;;
71777;SDS011;59609;52.430;4.668;2023-08-06T03:15:37;5.30;;;2.43;;
71777;SDS011;59609;52.430;4.668;2023-08-06T03:18:02;3.37;;;2.47;;
71777;SDS011;59609;52.430;4.668;2023-08-06T03:20:28;3.23;;;1.90;;
71777;SDS011;59609;52.430;4.668;2023-08-06T03:22:53;4.10;;;2.40;;
71777;SDS011;59609;52.430;4.668;2023-08-06T03:25:18;2.60;;;2.10;;
71777;SDS011;59609;52.430;4.668;2023-08-06T03:27:43;3.93;;;2.30;;
71777;SDS011;59609;52.430;4.668;2023-08-06T03:30:09;4.67;;;2.20;;
71777;SDS011;59609;52.430;4.668;2023-08-06T03:32:34;3.08;;;2.65;;
71777;SDS011;59609;52.430;4.668;2023-08-06T03:34:59;3.53;;;2.80;;
71777;SDS011;59609;52.430;4.668;2023-08-06T03:37:25;3.37;;;2.30;;
71777;SDS011;59609;52.430;4.668;2023-08-06T03:39:50;5.73;;;2.90;;
71777;SDS011;59609;52.430;4.668;2023-08-06T03:42:15;3.17;;;2.40;;
71777;SDS011;59609;52.430;4.668;2023-08-06T03:44:40;4.77;;;2.80;;
71777;SDS011;59609;52.430;4.668;2023-08-06T03:47:05;3.60;;;2.07;;
71777;SDS011;59609;52.430;4.668;2023-08-06T03:49:31;2.97;;;2.30;;
71777;SDS011;59609;52.430;4.668;2023-08-06T03:51:56;4.93;;;1.90;;
71777;SDS011;59609;52.430;4.668;2023-08-06T03:54:21;3.03;;;2.27;;
71777;SDS011;59609;52.430;4.668;2023-08-06T03:56:46;2.50;;;2.13;;
71777;SDS011;59609;52.430;4.668;2023-08-06T03:59:12;3.40;;;2.30;;
71777;SDS011;59609;52.430;4.668;2023-08-06T04:01:37;2.87;;;1.90;;
71777;SDS011;59609;52.430;4.668;2023-08-06T04:04:02;3.33;;;2.27;;
71777;SDS011;59609;52.430;4.668;2023-08-06T04:06:27;5.72;;;2.25;;
71777;SDS011;59609;52.430;4.668;2023-08-06T04:08:53;4.63;;;2.87;;
71777;SDS011;59609;52.430;4.668;2023-08-06T04:11:18;4.97;;;3.10;;
71777;SDS011;59609;52.430;4.668;2023-08-06T04:13:43;5.60;;;3.77;;
71777;SDS011;59609;52.430;4.668;2023-08-06T04:16:09;7.57;;;3.90;;
71777;SDS011;59609;52.430;4.668;2023-08-06T04:18:34;6.55;;;4.07;;
71777;SDS011;59609;52.430;4.668;2023-08-06T04:21:01;6.27;;;4.40;;
71777;SDS011;59609;52.430;4.668;2023-08-06T04:23:26;6.63;;;4.30;;
71777;SDS011;59609;52.430;4.668;2023-08-06T04:25:51;6.43;;;5.03;;
71777;SDS011;59609;52.430;4.668;2023-08-06T04:28:17;8.43;;;4.72;;
71777;SDS011;59609;52.430;4.668;2023-08-06T04:30:42;7.93;;;5.20;;
71777;SDS011;59609;52.430;4.668;2023-08-06T04:33:07;7.77;;;4.63;;
71777;SDS011;59609;52.430;4.668;2023-08-06T04:35:32;7.50;;;5.53;;
71777;SDS011;59609;52.430;4.668;2023-08-06T04:37:57;5.87;;;4.20;;
71777;SDS011;59609;52.430;4.668;2023-08-06T04:40:23;4.83;;;3.60;;
71777;SDS011;59609;52.430;4.668;2023-08-06T04:42:48;5.80;;;3.60;;
71777;SDS011;59609;52.430;4.668;2023-08-06T04:45:13;3.47;;;3.17;;
71777;SDS011;59609;52.430;4.668;2023-08-06T04:47:38;3.93;;;3.20;;
71777;SDS011;59609;52.430;4.668;2023-08-06T04:50:04;4.65;;;2.97;;
71777;SDS011;59609;52.430;4.668;2023-08-06T04:52:29;3.75;;;2.95;;
71777;SDS011;59609;52.430;4.668;2023-08-06T04:54:57;3.13;;;2.80;;
71777;SDS011;59609;52.430;4.668;2023-08-06T04:57:22;5.17;;;3.03;;
71777;SDS011;59609;52.430;4.668;2023-08-06T04:59:47;3.30;;;3.00;;
71777;SDS011;59609;52.430;4.668;2023-08-06T05:02:12;3.80;;;3.30;;
71777;SDS011;59609;52.430;4.668;2023-08-06T05:04:38;4.00;;;3.50;;
71777;SDS011;59609;52.430;4.668;2023-08-06T05:07:03;7.07;;;3.25;;
71777;SDS011;59609;52.430;4.668;2023-08-06T05:09:28;3.92;;;3.53;;
71777;SDS011;59609;52.430;4.668;2023-08-06T05:11:54;4.80;;;3.40;;
71777;SDS011;59609;52.430;4.668;2023-08-06T05:14:19;5.28;;;3.80;;
71777;SDS011;59609;52.430;4.668;2023-08-06T05:16:44;4.87;;;3.57;;
71777;SDS011;59609;52.430;4.668;2023-08-06T05:19:09;6.67;;;4.00;;
71777;SDS011;59609;52.430;4.668;2023-08-06T05:21:35;5.10;;;3.33;;
71777;SDS011;59609;52.430;4.668;2023-08-06T05:24:00;6.00;;;3.73;;
71777;SDS011;59609;52.430;4.668;2023-08-06T05:26:25;6.60;;;4.30;;
71777;SDS011;59609;52.430;4.668;2023-08-06T05:28:50;5.47;;;3.60;;
71777;SDS011;59609;52.430;4.668;2023-08-06T05:31:15;6.80;;;4.03;;
71777;SDS011;59609;52.430;4.668;2023-08-06T05:33:41;7.03;;;3.83;;
71777;SDS011;59609;52.430;4.668;2023-08-06T05:36:06;7.13;;;4.13;;
71777;SDS011;59609;52.430;4.668;2023-08-06T05:38:31;8.60;;;4.20;;
71777;SDS011;59609;52.430;4.668;2023-08-06T05:40:56;7.55;;;4.28;;
71777;SDS011;59609;52.430;4.668;2023-08-06T05:43:22;9.73;;;5.37;;
71777;SDS011;59609;52.430;4.668;2023-08-06T05:45:49;8.15;;;4.65;;
71777;SDS011;59609;52.430;4.668;2023-08-06T05:48:14;7.18;;;4.43;;
71777;SDS011;59609;52.430;4.668;2023-08-06T05:50:39;8.10;;;4.57;;
71777;SDS011;59609;52.430;4.668;2023-08-06T05:53:05;7.77;;;4.40;;
71777;SDS011;59609;52.430;4.668;2023-08-06T05:55:30;7.20;;;4.93;;
71777;SDS011;59609;52.430;4.668;2023-08-06T05:57:57;6.63;;;4.85;;
71777;SDS011;59609;52.430;4.668;2023-08-06T06:00:22;6.22;;;4.68;;
71777;SDS011;59609;52.430;4.668;2023-08-06T06:02:47;6.18;;;5.00;;
71777;SDS011;59609;52.430;4.668;2023-08-06T06:05:13;7.50;;;4.95;;
71777;SDS011;59609;52.430;4.668;2023-08-06T06:07:38;6.13;;;4.63;;
71777;SDS011;59609;52.430;4.668;2023-08-06T06:10:03;6.10;;;4.30;;
71777;SDS011;59609;52.430;4.668;2023-08-06T06:12:29;6.63;;;4.80;;
71777;SDS011;59609;52.430;4.668;2023-08-06T06:14:54;4.88;;;4.30;;
71777;SDS011;59609;52.430;4.668;2023-08-06T06:17:19;12.00;;;4.87;;
71777;SDS011;59609;52.430;4.668;2023-08-06T06:19:44;6.97;;;4.50;;
71777;SDS011;59609;52.430;4.668;2023-08-06T06:22:10;5.83;;;4.63;;
71777;SDS011;59609;52.430;4.668;2023-08-06T06:24:35;6.27;;;3.83;;
71777;SDS011;59609;52.430;4.668;2023-08-06T06:27:00;6.10;;;4.07;;
71777;SDS011;59609;52.430;4.668;2023-08-06T06:29:25;7.03;;;4.57;;
71777;SDS011;59609;52.430;4.668;2023-08-06T06:31:51;6.87;;;4.43;;
71777;SDS011;59609;52.430;4.668;2023-08-06T06:34:16;7.67;;;4.77;;
71777;SDS011;59609;52.430;4.668;2023-08-06T06:36:41;8.83;;;6.40;;
71777;SDS011;59609;52.430;4.668;2023-08-06T06:39:06;9.60;;;6.43;;
71777;SDS011;59609;52.430;4.668;2023-08-06T06:41:33;6.35;;;5.63;;
71777;SDS011;59609;52.430;4.668;2023-08-06T06:43:58;7.67;;;4.40;;
71777;SDS011;59609;52.430;4.668;2023-08-06T06:46:23;4.60;;;4.10;;
71777;SDS011;59609;52.430;4.668;2023-08-06T06:48:49;9.47;;;4.27;;
71777;SDS011;59609;52.430;4.668;2023-08-06T06:51:14;8.73;;;4.77;;
71777;SDS011;59609;52.430;4.668;2023-08-06T06:53:39;6.60;;;4.50;;
71777;SDS011;59609;52.430;4.668;2023-08-06T06:56:05;7.68;;;4.47;;
71777;SDS011;59609;52.430;4.668;2023-08-06T06:58:31;7.65;;;4.60;;
71777;SDS011;59609;52.430;4.668;2023-08-06T07:00:56;9.73;;;5.22;;
71777;SDS011;59609;52.430;4.668;2023-08-06T07:03:21;7.93;;;5.47;;
71777;SDS011;59609;52.430;4.668;2023-08-06T07:05:46;7.77;;;4.83;;
71777;SDS011;59609;52.430;4.668;2023-08-06T07:08:12;7.73;;;4.33;;
71777;SDS011;59609;52.430;4.668;2023-08-06T07:10:37;5.77;;;3.73;;
71777;SDS011;59609;52.430;4.668;2023-08-06T07:13:02;8.27;;;4.63;;
71777;SDS011;59609;52.430;4.668;2023-08-06T07:15:28;8.85;;;4.25;;
71777;SDS011;59609;52.430;4.668;2023-08-06T07:17:53;7.40;;;4.40;;
71777;SDS011;59609;52.430;4.668;2023-08-06T07:20:18;8.30;;;4.10;;
71777;SDS011;59609;52.430;4.668;2023-08-06T07:22:44;13.67;;;5.40;;
71777;SDS011;59609;52.430;4.668;2023-08-06T07:25:09;20.98;;;5.53;;
71777;SDS011;59609;52.430;4.668;2023-08-06T07:27:34;11.43;;;5.03;;
71777;SDS011;59609;52.430;4.668;2023-08-06T07:30:00;12.40;;;4.20;;
71777;SDS011;59609;52.430;4.668;2023-08-06T07:32:25;11.38;;;4.43;;
71777;SDS011;59609;52.430;4.668;2023-08-06T07:34:50;9.65;;;4.45;;
71777;SDS011;59609;52.430;4.668;2023-08-06T07:37:21;7.30;;;5.78;;
71777;SDS011;59609;52.430;4.668;2023-08-06T07:39:46;7.10;;;6.10;;
71777;SDS011;59609;52.430;4.668;2023-08-06T07:42:12;6.60;;;5.67;;
71777;SDS011;59609;52.430;4.668;2023-08-06T07:44:37;7.37;;;5.03;;
71777;SDS011;59609;52.430;4.668;2023-08-06T07:47:02;8.50;;;4.90;;
71777;SDS011;59609;52.430;4.668;2023-08-06T07:49:27;7.22;;;5.07;;
71777;SDS011;59609;52.430;4.668;2023-08-06T07:51:53;5.13;;;4.63;;
71777;SDS011;59609;52.430;4.668;2023-08-06T07:54:18;6.03;;;4.80;;
71777;SDS011;59609;52.430;4.668;2023-08-06T07:56:43;8.70;;;5.18;;
71777;SDS011;59609;52.430;4.668;2023-08-06T07:59:08;6.60;;;4.50;;
71777;SDS011;59609;52.430;4.668;2023-08-06T08:01:34;8.25;;;5.00;;
71777;SDS011;59609;52.430;4.668;2023-08-06T08:03:59;5.18;;;4.75;;
71777;SDS011;59609;52.430;4.668;2023-08-06T08:06:25;4.65;;;4.25;;
71777;SDS011;59609;52.430;4.668;2023-08-06T08:08:50;5.57;;;4.40;;
71777;SDS011;59609;52.430;4.668;2023-08-06T08:11:16;6.18;;;4.60;;
71777;SDS011;59609;52.430;4.668;2023-08-06T08:13:42;4.80;;;4.38;;
71777;SDS011;59609;52.430;4.668;2023-08-06T08:16:07;6.43;;;4.33;;
71777;SDS011;59609;52.430;4.668;2023-08-06T08:18:33;4.80;;;4.10;;
71777;SDS011;59609;52.430;4.668;2023-08-06T08:20:58;4.63;;;4.00;;
71777;SDS011;59609;52.430;4.668;2023-08-06T08:23:23;5.70;;;4.13;;
71777;SDS011;59609;52.430;4.668;2023-08-06T08:25:48;6.13;;;5.20;;
71777;SDS011;59609;52.430;4.668;2023-08-06T08:28:14;4.30;;;3.87;;
71777;SDS011;59609;52.430;4.668;2023-08-06T08:30:40;10.80;;;4.23;;
71777;SDS011;59609;52.430;4.668;2023-08-06T08:33:05;4.35;;;4.05;;
71777;SDS011;59609;52.430;4.668;2023-08-06T08:35:30;9.63;;;3.92;;
71777;SDS011;59609;52.430;4.668;2023-08-06T08:37:56;3.63;;;3.43;;
71777;SDS011;59609;52.430;4.668;2023-08-06T08:40:21;4.10;;;3.70;;
71777;SDS011;59609;52.430;4.668;2023-08-06T08:42:50;4.70;;;3.50;;
71777;SDS011;59609;52.430;4.668;2023-08-06T08:45:16;4.68;;;3.47;;
71777;SDS011;59609;52.430;4.668;2023-08-06T08:47:42;5.28;;;3.63;;
71777;SDS011;59609;52.430;4.668;2023-08-06T08:50:08;5.22;;;3.30;;
71777;SDS011;59609;52.430;4.668;2023-08-06T08:52:34;3.50;;;3.20;;
71777;SDS011;59609;52.430;4.668;2023-08-06T08:55:01;3.70;;;3.20;;
71777;SDS011;59609;52.430;4.668;2023-08-06T08:57:26;4.43;;;3.22;;
71777;SDS011;59609;52.430;4.668;2023-08-06T08:59:52;3.28;;;2.97;;
71777;SDS011;59609;52.430;4.668;2023-08-06T09:02:17;3.80;;;3.43;;
71777;SDS011;59609;52.430;4.668;2023-08-06T09:04:43;4.00;;;3.08;;
71777;SDS011;59609;52.430;4.668;2023-08-06T09:07:09;3.33;;;3.03;;
71777;SDS011;59609;52.430;4.668;2023-08-06T09:09:35;4.78;;;3.05;;
71777;SDS011;59609;52.430;4.668;2023-08-06T09:12:16;4.72;;;3.28;;
71777;SDS011;59609;52.430;4.668;2023-08-06T09:14:41;4.53;;;3.20;;
71777;SDS011;59609;52.430;4.668;2023-08-06T09:17:07;2.88;;;2.67;;
71777;SDS011;59609;52.430;4.668;2023-08-06T09:19:34;3.42;;;3.13;;
71777;SDS011;59609;52.430;4.668;2023-08-06T09:21:59;4.85;;;4.45;;
71777;SDS011;59609;52.430;4.668;2023-08-06T09:24:24;5.90;;;3.53;;
71777;SDS011;59609;52.430;4.668;2023-08-06T09:26:51;4.22;;;2.75;;
71777;SDS011;59609;52.430;4.668;2023-08-06T09:29:16;3.13;;;2.85;;
71777;SDS011;59609;52.430;4.668;2023-08-06T09:31:42;4.97;;;3.30;;
71777;SDS011;59609;52.430;4.668;2023-08-06T09:34:11;3.42;;;2.55;;
71777;SDS011;59609;52.430;4.668;2023-08-06T09:36:41;3.63;;;3.40;;
71777;SDS011;59609;52.430;4.668;2023-08-06T09:39:13;5.15;;;3.00;;
71777;SDS011;59609;52.430;4.668;2023-08-06T09:41:39;3.13;;;2.85;;
71777;SDS011;59609;52.430;4.668;2023-08-06T09:44:05;5.85;;;2.78;;
71777;SDS011;59609;52.430;4.668;2023-08-06T09:46:31;3.20;;;3.00;;
71777;SDS011;59609;52.430;4.668;2023-08-06T09:48:57;2.97;;;2.72;;
71777;SDS011;59609;52.430;4.668;2023-08-06T09:51:22;3.40;;;3.10;;
71777;SDS011;59609;52.430;4.668;2023-08-06T09:53:47;3.50;;;3.20;;
71777;SDS011;59609;52.430;4.668;2023-08-06T09:56:13;3.00;;;2.70;;
71777;SDS011;59609;52.430;4.668;2023-08-06T09:58:39;3.35;;;3.05;;
71777;SDS011;59609;52.430;4.668;2023-08-06T10:01:04;3.20;;;2.90;;
71777;SDS011;59609;52.430;4.668;2023-08-06T10:03:30;3.30;;;2.83;;
71777;SDS011;59609;52.430;4.668;2023-08-06T10:05:55;3.10;;;2.90;;
71777;SDS011;59609;52.430;4.668;2023-08-06T10:08:21;3.15;;;2.92;;
71777;SDS011;59609;52.430;4.668;2023-08-06T10:10:47;3.37;;;2.80;;
71777;SDS011;59609;52.430;4.668;2023-08-06T10:13:12;3.67;;;3.25;;
71777;SDS011;59609;52.430;4.668;2023-08-06T10:15:38;3.15;;;2.90;;
71777;SDS011;59609;52.430;4.668;2023-08-06T10:18:04;3.72;;;3.10;;
71777;SDS011;59609;52.430;4.668;2023-08-06T10:20:36;4.82;;;3.17;;
71777;SDS011;59609;52.430;4.668;2023-08-06T10:23:02;2.97;;;2.78;;
71777;SDS011;59609;52.430;4.668;2023-08-06T10:25:30;4.07;;;3.65;;
71777;SDS011;59609;52.430;4.668;2023-08-06T10:27:55;3.85;;;3.08;;
71777;SDS011;59609;52.430;4.668;2023-08-06T10:30:30;3.65;;;2.95;;
71777;SDS011;59609;52.430;4.668;2023-08-06T10:33:03;4.18;;;2.85;;
71777;SDS011;59609;52.430;4.668;2023-08-06T10:35:29;5.80;;;2.95;;
71777;SDS011;59609;52.430;4.668;2023-08-06T10:37:57;3.08;;;2.83;;
71777;SDS011;59609;52.430;4.668;2023-08-06T10:40:23;4.57;;;3.20;;
71777;SDS011;59609;52.430;4.668;2023-08-06T10:42:49;3.25;;;2.97;;
71777;SDS011;59609;52.430;4.668;2023-08-06T10:45:15;4.40;;;3.13;;
71777;SDS011;59609;52.430;4.668;2023-08-06T10:47:41;5.28;;;3.30;;
71777;SDS011;59609;52.430;4.668;2023-08-06T10:50:16;3.85;;;3.22;;
71777;SDS011;59609;52.430;4.668;2023-08-06T10:52:46;5.32;;;3.35;;
71777;SDS011;59609;52.430;4.668;2023-08-06T10:55:12;3.95;;;2.80;;
71777;SDS011;59609;52.430;4.668;2023-08-06T10:57:37;3.58;;;3.28;;
71777;SDS011;59609;52.430;4.668;2023-08-06T11:00:06;6.95;;;3.35;;
71777;SDS011;59609;52.430;4.668;2023-08-06T11:02:35;5.00;;;3.50;;
71777;SDS011;59609;52.430;4.668;2023-08-06T11:05:10;4.20;;;3.28;;
71777;SDS011;59609;52.430;4.668;2023-08-06T11:07:36;3.92;;;3.35;;
71777;SDS011;59609;52.430;4.668;2023-08-06T11:10:04;4.95;;;2.58;;
71777;SDS011;59609;52.430;4.668;2023-08-06T11:12:33;3.45;;;3.15;;
71777;SDS011;59609;52.430;4.668;2023-08-06T11:14:59;4.47;;;3.13;;
71777;SDS011;59609;52.430;4.668;2023-08-06T11:17:24;3.80;;;3.42;;
71777;SDS011;59609;52.430;4.668;2023-08-06T11:19:50;4.53;;;3.38;;
71777;SDS011;59609;52.430;4.668;2023-08-06T11:22:16;4.68;;;4.28;;
71777;SDS011;59609;52.430;4.668;2023-08-06T11:24:42;7.15;;;3.53;;
71777;SDS011;59609;52.430;4.668;2023-08-06T11:27:11;5.32;;;4.05;;
71777;SDS011;59609;52.430;4.668;2023-08-06T11:29:37;3.80;;;3.50;;
71777;SDS011;59609;52.430;4.668;2023-08-06T11:32:03;5.05;;;3.38;;
71777;SDS011;59609;52.430;4.668;2023-08-06T11:34:29;3.17;;;2.95;;
71777;SDS011;59609;52.430;4.668;2023-08-06T11:36:54;8.73;;;3.58;;
71777;SDS011;59609;52.430;4.668;2023-08-06T11:39:21;3.15;;;2.72;;
71777;SDS011;59609;52.430;4.668;2023-08-06T11:41:47;2.97;;;2.33;;
71777;SDS011;59609;52.430;4.668;2023-08-06T11:44:13;3.17;;;2.97;;
71777;SDS011;59609;52.430;4.668;2023-08-06T11:46:51;2.83;;;2.63;;
71777;SDS011;59609;52.430;4.668;2023-08-06T11:49:17;3.75;;;2.65;;
71777;SDS011;59609;52.430;4.668;2023-08-06T11:51:46;2.88;;;2.63;;
71777;SDS011;59609;52.430;4.668;2023-08-06T11:54:11;2.50;;;2.30;;
71777;SDS011;59609;52.430;4.668;2023-08-06T11:56:36;3.13;;;2.90;;
71777;SDS011;59609;52.430;4.668;2023-08-06T11:59:01;3.90;;;2.70;;
71777;SDS011;59609;52.430;4.668;2023-08-06T12:01:27;3.03;;;2.33;;
71777;SDS011;59609;52.430;4.668;2023-08-06T12:03:57;3.63;;;2.22;;
71777;SDS011;59609;52.430;4.668;2023-08-06T12:06:26;2.85;;;2.13;;
71777;SDS011;59609;52.430;4.668;2023-08-06T12:08:51;3.58;;;3.13;;
71777;SDS011;59609;52.430;4.668;2023-08-06T12:11:17;4.90;;;2.60;;
71777;SDS011;59609;52.430;4.668;2023-08-06T12:13:42;4.30;;;3.07;;
71777;SDS011;59609;52.430;4.668;2023-08-06T12:16:07;2.30;;;2.10;;
71777;SDS011;59609;52.430;4.668;2023-08-06T12:18:32;6.40;;;2.27;;
71777;SDS011;59609;52.430;4.668;2023-08-06T12:20:57;2.40;;;2.20;;
71777;SDS011;59609;52.430;4.668;2023-08-06T12:23:23;2.20;;;2.08;;
71777;SDS011;59609;52.430;4.668;2023-08-06T12:25:48;3.50;;;2.00;;
71777;SDS011;59609;52.430;4.668;2023-08-06T12:28:14;2.17;;;1.95;;
71777;SDS011;59609;52.430;4.668;2023-08-06T12:30:39;2.53;;;2.00;;
71777;SDS011;59609;52.430;4.668;2023-08-06T12:33:07;2.65;;;2.45;;
71777;SDS011;59609;52.430;4.668;2023-08-06T12:35:35;3.83;;;2.40;;
71777;SDS011;59609;52.430;4.668;2023-08-06T12:38:00;2.73;;;2.30;;
71777;SDS011;59609;52.430;4.668;2023-08-06T12:40:26;2.37;;;2.17;;
71777;SDS011;59609;52.430;4.668;2023-08-06T12:42:51;2.95;;;2.50;;
71777;SDS011;59609;52.430;4.668;2023-08-06T12:45:16;3.97;;;2.70;;
71777;SDS011;59609;52.430;4.668;2023-08-06T12:47:42;2.60;;;2.25;;
71777;SDS011;59609;52.430;4.668;2023-08-06T12:50:07;2.13;;;1.92;;
71777;SDS011;59609;52.430;4.668;2023-08-06T12:52:33;3.60;;;2.33;;
71777;SDS011;59609;52.430;4.668;2023-08-06T12:54:58;2.97;;;2.00;;
71777;SDS011;59609;52.430;4.668;2023-08-06T12:57:23;3.27;;;2.20;;
71777;SDS011;59609;52.430;4.668;2023-08-06T12:59:48;3.37;;;1.90;;
71777;SDS011;59609;52.430;4.668;2023-08-06T13:02:14;2.90;;;2.60;;
71777;SDS011;59609;52.430;4.668;2023-08-06T13:04:39;3.53;;;2.20;;
71777;SDS011;59609;52.430;4.668;2023-08-06T13:07:06;5.13;;;2.63;;
71777;SDS011;59609;52.430;4.668;2023-08-06T13:09:32;7.78;;;2.05;;
71777;SDS011;59609;52.430;4.668;2023-08-06T13:11:57;2.30;;;2.10;;
71777;SDS011;59609;52.430;4.668;2023-08-06T13:14:24;4.03;;;2.05;;
71777;SDS011;59609;52.430;4.668;2023-08-06T13:16:52;2.25;;;2.05;;
71777;SDS011;59609;52.430;4.668;2023-08-06T13:19:17;3.00;;;1.85;;
71777;SDS011;59609;52.430;4.668;2023-08-06T13:24:14;3.25;;;1.77;;
71777;SDS011;59609;52.430;4.668;2023-08-06T13:26:40;3.28;;;2.05;;
71777;SDS011;59609;52.430;4.668;2023-08-06T13:29:05;1.73;;;1.43;;
71777;SDS011;59609;52.430;4.668;2023-08-06T13:31:32;3.17;;;2.10;;
71777;SDS011;59609;52.430;4.668;2023-08-06T13:33:57;3.83;;;1.65;;
71777;SDS011;59609;52.430;4.668;2023-08-06T13:36:23;3.92;;;1.80;;
71777;SDS011;59609;52.430;4.668;2023-08-06T13:38:48;3.67;;;1.85;;
71777;SDS011;59609;52.430;4.668;2023-08-06T13:41:14;8.60;;;1.90;;
71777;SDS011;59609;52.430;4.668;2023-08-06T13:43:39;4.90;;;1.45;;
71777;SDS011;59609;52.430;4.668;2023-08-06T13:46:04;6.70;;;1.80;;
71777;SDS011;59609;52.430;4.668;2023-08-06T13:48:30;6.90;;;2.30;;
71777;SDS011;59609;52.430;4.668;2023-08-06T13:50:55;4.63;;;1.20;;
71777;SDS011;59609;52.430;4.668;2023-08-06T13:53:20;4.33;;;1.60;;
71777;SDS011;59609;52.430;4.668;2023-08-06T13:55:45;4.73;;;1.67;;
71777;SDS011;59609;52.430;4.668;2023-08-06T13:58:11;4.67;;;1.90;;
71777;SDS011;59609;52.430;4.668;2023-08-06T14:00:37;4.27;;;1.70;;
71777;SDS011;59609;52.430;4.668;2023-08-06T14:03:03;9.55;;;2.75;;
71777;SDS011;59609;52.430;4.668;2023-08-06T14:05:28;6.03;;;1.83;;
71777;SDS011;59609;52.430;4.668;2023-08-06T14:07:54;6.63;;;2.33;;
71777;SDS011;59609;52.430;4.668;2023-08-06T14:10:19;4.93;;;2.10;;
71777;SDS011;59609;52.430;4.668;2023-08-06T14:12:44;4.30;;;1.50;;
71777;SDS011;59609;52.430;4.668;2023-08-06T14:15:10;4.30;;;2.03;;
71777;SDS011;59609;52.430;4.668;2023-08-06T14:17:35;6.40;;;2.03;;
71777;SDS011;59609;52.430;4.668;2023-08-06T14:20:01;7.80;;;1.75;;
71777;SDS011;59609;52.430;4.668;2023-08-06T14:22:28;8.88;;;2.08;;
71777;SDS011;59609;52.430;4.668;2023-08-06T14:24:55;3.53;;;1.70;;
71777;SDS011;59609;52.430;4.668;2023-08-06T14:27:21;2.58;;;1.40;;
71777;SDS011;59609;52.430;4.668;2023-08-06T14:29:49;4.80;;;1.42;;
71777;SDS011;59609;52.430;4.668;2023-08-06T14:32:15;5.90;;;1.67;;
71777;SDS011;59609;52.430;4.668;2023-08-06T14:34:43;4.10;;;1.88;;
71777;SDS011;59609;52.430;4.668;2023-08-06T14:37:08;6.15;;;1.55;;
71777;SDS011;59609;52.430;4.668;2023-08-06T14:39:33;2.97;;;1.30;;
71777;SDS011;59609;52.430;4.668;2023-08-06T14:41:58;12.87;;;1.87;;
71777;SDS011;59609;52.430;4.668;2023-08-06T14:44:23;4.00;;;1.43;;